Wokal Field Glasgow International Airport Glasgow US
ICAO: KGGW
IATA: GGW
Category: Medium
Scheduled Services: Yes

Elevation: 2296 ft
TransAlt. 18000 ft.

Airport Communications:
ASOS:135.175
SALT LAKE CITY CNTR:126.85
GREAT FALLS RDO:122.25
CTAF/UNICOM:122.8

KGGW Zoom In..

If you have problems with the map follow the link
https://www.worldairports.se/pages/airport.php?
ICAO=KGGW

Runways:

(A) RW 08 length 5000 ft width 75 ft
---- / hdg 79

(B) RW 12 length 5002 ft width 100 ft
---- / hdg 123

(C) RW 26 length 5000 ft width 75 ft
---- / hdg 259

(D) RW 30 length 5002 ft width 100 ft
---- / hdg 303

Location; KGGW
Day. 16 / Time. 02.53 Zulu
* Altimeter: 29.95
* Temperature: 02° c. 35.6°f.
* Wind from: 110° Speed 08 kn.
Dewpoint: -01° c.
Visibility: 10 Statute Miles.
Clouds: Clear (automated report).

KGGW 160253Z AUTO 11008KT 10SM CLR 02/M01 A2995 RMK AO2 SLP164 T00221006 56023


Wind From 110°
Speed 08 kn.

 
 
jpsmedia.com for Web Design worldairports.se 2018   terms of use